Hood, Virginia
Current Conditions -  °F | °C
As of 10:53 PM on Sunday 21 Dec 2014 (Local Time) from KCHO Reporting Station
Overcast Overcast  
Wind Chill: 32°   Ceiling: 4300
Heat Index: 32°   Visibility: 10mi
Dew Point: 26°   Wind: 0mph
Humidity: 79%   Direction: NA
Pressure: 30.3"   Gusts: NA
Location:  38.35°N, 78.38°W
Report Text: KCHO 220353Z 00000KT 10SM OVC043 00/M03 A3030 RMK AO2 SLP263 T00001033
Loading
Personal Weather Stations






























Interactive Weather Map New forecast layout! Learn more

10-Day Weather Forecast

Advertisements
Track Severe Weather on mobile